sensor_id;sensor_type;location;lat;lon;timestamp;temperature;humidity
22469;DHT22;11401;50.792;4.352;2024-02-04T00:02:11;17.20;65.10
22469;DHT22;11401;50.792;4.352;2024-02-04T00:04:41;17.30;64.70
22469;DHT22;11401;50.792;4.352;2024-02-04T00:07:08;17.20;64.30
22469;DHT22;11401;50.792;4.352;2024-02-04T00:09:36;17.20;64.40
22469;DHT22;11401;50.792;4.352;2024-02-04T00:12:04;17.20;64.70
22469;DHT22;11401;50.792;4.352;2024-02-04T00:14:33;17.20;64.50
22469;DHT22;11401;50.792;4.352;2024-02-04T00:17:00;17.30;65.40
22469;DHT22;11401;50.792;4.352;2024-02-04T00:19:27;17.30;64.20
22469;DHT22;11401;50.792;4.352;2024-02-04T00:21:55;17.30;64.30
22469;DHT22;11401;50.792;4.352;2024-02-04T00:24:26;17.30;64.20
22469;DHT22;11401;50.792;4.352;2024-02-04T00:26:53;17.50;64.40
22469;DHT22;11401;50.792;4.352;2024-02-04T00:29:20;17.40;64.10
22469;DHT22;11401;50.792;4.352;2024-02-04T00:31:48;17.40;63.70
22469;DHT22;11401;50.792;4.352;2024-02-04T00:34:15;17.30;63.80
22469;DHT22;11401;50.792;4.352;2024-02-04T00:36:43;17.30;64.70
22469;DHT22;11401;50.792;4.352;2024-02-04T00:39:10;17.20;64.20
22469;DHT22;11401;50.792;4.352;2024-02-04T00:41:38;17.20;64.80
22469;DHT22;11401;50.792;4.352;2024-02-04T00:44:05;17.10;64.70
22469;DHT22;11401;50.792;4.352;2024-02-04T00:46:32;17.10;65.00
22469;DHT22;11401;50.792;4.352;2024-02-04T00:48:59;17.30;64.60
22469;DHT22;11401;50.792;4.352;2024-02-04T00:51:26;17.40;64.40
22469;DHT22;11401;50.792;4.352;2024-02-04T00:53:53;17.20;64.10
22469;DHT22;11401;50.792;4.352;2024-02-04T00:56:21;17.10;64.60
22469;DHT22;11401;50.792;4.352;2024-02-04T00:58:48;17.10;65.10
22469;DHT22;11401;50.792;4.352;2024-02-04T01:01:15;17.00;65.00
22469;DHT22;11401;50.792;4.352;2024-02-04T01:03:43;17.20;65.40
22469;DHT22;11401;50.792;4.352;2024-02-04T01:06:10;17.20;64.50
22469;DHT22;11401;50.792;4.352;2024-02-04T01:08:37;17.10;64.40
22469;DHT22;11401;50.792;4.352;2024-02-04T01:11:05;17.00;64.50
22469;DHT22;11401;50.792;4.352;2024-02-04T01:13:32;17.00;64.80
22469;DHT22;11401;50.792;4.352;2024-02-04T01:15:59;16.90;65.00
22469;DHT22;11401;50.792;4.352;2024-02-04T01:18:26;16.90;65.20
22469;DHT22;11401;50.792;4.352;2024-02-04T01:20:54;16.80;65.30
22469;DHT22;11401;50.792;4.352;2024-02-04T01:23:21;16.80;65.30
22469;DHT22;11401;50.792;4.352;2024-02-04T01:25:48;16.90;65.80
22469;DHT22;11401;50.792;4.352;2024-02-04T01:28:15;16.90;65.40
22469;DHT22;11401;50.792;4.352;2024-02-04T01:30:42;16.80;65.80
22469;DHT22;11401;50.792;4.352;2024-02-04T01:33:09;16.80;65.20
22469;DHT22;11401;50.792;4.352;2024-02-04T01:35:36;16.90;65.30
22469;DHT22;11401;50.792;4.352;2024-02-04T01:38:03;16.90;65.30
22469;DHT22;11401;50.792;4.352;2024-02-04T01:40:30;16.90;65.30
22469;DHT22;11401;50.792;4.352;2024-02-04T01:42:58;16.80;65.20
22469;DHT22;11401;50.792;4.352;2024-02-04T01:45:25;16.80;65.40
22469;DHT22;11401;50.792;4.352;2024-02-04T01:47:53;16.70;65.40
22469;DHT22;11401;50.792;4.352;2024-02-04T01:50:22;16.80;65.90
22469;DHT22;11401;50.792;4.352;2024-02-04T01:52:49;16.80;65.30
22469;DHT22;11401;50.792;4.352;2024-02-04T01:55:18;16.80;65.30
22469;DHT22;11401;50.792;4.352;2024-02-04T01:57:48;16.80;65.60
22469;DHT22;11401;50.792;4.352;2024-02-04T02:00:16;16.80;65.60
22469;DHT22;11401;50.792;4.352;2024-02-04T02:02:46;16.80;65.50
22469;DHT22;11401;50.792;4.352;2024-02-04T02:05:15;16.70;65.40
22469;DHT22;11401;50.792;4.352;2024-02-04T02:07:42;16.60;65.80
22469;DHT22;11401;50.792;4.352;2024-02-04T02:10:13;16.60;66.00
22469;DHT22;11401;50.792;4.352;2024-02-04T02:12:47;16.60;66.00
22469;DHT22;11401;50.792;4.352;2024-02-04T02:15:22;16.60;66.10
22469;DHT22;11401;50.792;4.352;2024-02-04T02:18:04;16.60;66.20
22469;DHT22;11401;50.792;4.352;2024-02-04T02:23:44;16.60;66.40
22469;DHT22;11401;50.792;4.352;2024-02-04T02:26:14;16.60;66.50
22469;DHT22;11401;50.792;4.352;2024-02-04T02:28:42;16.50;66.30
22469;DHT22;11401;50.792;4.352;2024-02-04T02:31:09;16.50;66.60
22469;DHT22;11401;50.792;4.352;2024-02-04T02:33:36;16.50;66.60
22469;DHT22;11401;50.792;4.352;2024-02-04T02:36:07;16.50;66.70
22469;DHT22;11401;50.792;4.352;2024-02-04T02:41:30;16.50;66.40
22469;DHT22;11401;50.792;4.352;2024-02-04T02:43:59;16.50;66.60
22469;DHT22;11401;50.792;4.352;2024-02-04T02:46:27;16.50;66.70
22469;DHT22;11401;50.792;4.352;2024-02-04T02:48:55;16.60;66.60
22469;DHT22;11401;50.792;4.352;2024-02-04T02:51:22;16.60;66.30
22469;DHT22;11401;50.792;4.352;2024-02-04T02:53:50;16.50;66.40
22469;DHT22;11401;50.792;4.352;2024-02-04T02:56:18;16.60;67.00
22469;DHT22;11401;50.792;4.352;2024-02-04T02:58:45;16.60;66.40
22469;DHT22;11401;50.792;4.352;2024-02-04T03:01:12;16.50;66.50
22469;DHT22;11401;50.792;4.352;2024-02-04T03:03:39;16.50;66.60
22469;DHT22;11401;50.792;4.352;2024-02-04T03:06:06;16.50;66.50
22469;DHT22;11401;50.792;4.352;2024-02-04T03:08:34;16.50;66.60
22469;DHT22;11401;50.792;4.352;2024-02-04T03:11:02;16.50;66.50
22469;DHT22;11401;50.792;4.352;2024-02-04T03:13:29;16.60;66.40
22469;DHT22;11401;50.792;4.352;2024-02-04T03:15:57;16.60;66.40
22469;DHT22;11401;50.792;4.352;2024-02-04T03:18:24;16.60;66.40
22469;DHT22;11401;50.792;4.352;2024-02-04T03:20:51;16.60;66.40
22469;DHT22;11401;50.792;4.352;2024-02-04T03:23:18;16.60;66.30
22469;DHT22;11401;50.792;4.352;2024-02-04T03:25:46;16.60;66.20
22469;DHT22;11401;50.792;4.352;2024-02-04T03:28:13;16.70;66.20
22469;DHT22;11401;50.792;4.352;2024-02-04T03:30:41;16.70;65.80
22469;DHT22;11401;50.792;4.352;2024-02-04T03:33:08;16.60;66.00
22469;DHT22;11401;50.792;4.352;2024-02-04T03:35:35;16.50;66.20
22469;DHT22;11401;50.792;4.352;2024-02-04T03:38:04;16.50;66.40
22469;DHT22;11401;50.792;4.352;2024-02-04T03:40:32;16.60;66.40
22469;DHT22;11401;50.792;4.352;2024-02-04T03:43:00;16.60;66.20
22469;DHT22;11401;50.792;4.352;2024-02-04T03:45:28;16.50;66.30
22469;DHT22;11401;50.792;4.352;2024-02-04T03:47:56;16.50;66.50
22469;DHT22;11401;50.792;4.352;2024-02-04T03:50:23;16.50;66.40
22469;DHT22;11401;50.792;4.352;2024-02-04T03:52:50;16.50;66.40
22469;DHT22;11401;50.792;4.352;2024-02-04T03:55:17;16.50;66.60
22469;DHT22;11401;50.792;4.352;2024-02-04T03:57:44;16.50;66.40
22469;DHT22;11401;50.792;4.352;2024-02-04T04:00:12;16.60;66.10
22469;DHT22;11401;50.792;4.352;2024-02-04T04:02:39;16.60;66.30
22469;DHT22;11401;50.792;4.352;2024-02-04T04:05:10;16.60;66.00
22469;DHT22;11401;50.792;4.352;2024-02-04T04:07:39;16.50;66.20
22469;DHT22;11401;50.792;4.352;2024-02-04T04:10:07;16.50;66.30
22469;DHT22;11401;50.792;4.352;2024-02-04T04:12:34;16.50;66.50
22469;DHT22;11401;50.792;4.352;2024-02-04T04:15:01;16.60;66.40
22469;DHT22;11401;50.792;4.352;2024-02-04T04:17:28;16.50;66.20
22469;DHT22;11401;50.792;4.352;2024-02-04T04:19:55;16.50;67.00
22469;DHT22;11401;50.792;4.352;2024-02-04T04:22:22;16.40;66.40
22469;DHT22;11401;50.792;4.352;2024-02-04T04:24:49;16.50;66.50
22469;DHT22;11401;50.792;4.352;2024-02-04T04:27:16;16.50;66.40
22469;DHT22;11401;50.792;4.352;2024-02-04T04:29:43;16.40;66.70
22469;DHT22;11401;50.792;4.352;2024-02-04T04:32:10;16.50;66.50
22469;DHT22;11401;50.792;4.352;2024-02-04T04:34:37;16.50;66.40
22469;DHT22;11401;50.792;4.352;2024-02-04T04:37:04;16.50;66.50
22469;DHT22;11401;50.792;4.352;2024-02-04T04:39:31;16.50;66.70
22469;DHT22;11401;50.792;4.352;2024-02-04T04:41:58;16.60;66.40
22469;DHT22;11401;50.792;4.352;2024-02-04T04:44:25;16.60;66.10
22469;DHT22;11401;50.792;4.352;2024-02-04T04:46:52;16.40;66.40
22469;DHT22;11401;50.792;4.352;2024-02-04T04:49:19;16.50;66.40
22469;DHT22;11401;50.792;4.352;2024-02-04T04:51:46;16.40;66.60
22469;DHT22;11401;50.792;4.352;2024-02-04T04:54:14;16.50;66.40
22469;DHT22;11401;50.792;4.352;2024-02-04T04:56:41;16.50;66.30
22469;DHT22;11401;50.792;4.352;2024-02-04T04:59:09;16.60;66.20
22469;DHT22;11401;50.792;4.352;2024-02-04T05:01:36;16.50;66.10
22469;DHT22;11401;50.792;4.352;2024-02-04T05:04:03;16.50;66.20
22469;DHT22;11401;50.792;4.352;2024-02-04T05:06:31;16.60;66.30
22469;DHT22;11401;50.792;4.352;2024-02-04T05:08:58;16.50;66.20
22469;DHT22;11401;50.792;4.352;2024-02-04T05:11:26;16.60;66.00
22469;DHT22;11401;50.792;4.352;2024-02-04T05:13:53;16.70;66.20
22469;DHT22;11401;50.792;4.352;2024-02-04T05:16:20;16.60;65.80
22469;DHT22;11401;50.792;4.352;2024-02-04T05:18:47;16.60;66.10
22469;DHT22;11401;50.792;4.352;2024-02-04T05:21:14;16.60;65.90
22469;DHT22;11401;50.792;4.352;2024-02-04T05:23:41;16.70;66.10
22469;DHT22;11401;50.792;4.352;2024-02-04T05:26:08;16.70;65.70
22469;DHT22;11401;50.792;4.352;2024-02-04T05:28:35;16.50;65.90
22469;DHT22;11401;50.792;4.352;2024-02-04T05:31:03;16.70;67.00
22469;DHT22;11401;50.792;4.352;2024-02-04T05:33:30;16.60;65.80
22469;DHT22;11401;50.792;4.352;2024-02-04T05:35:57;16.70;65.80
22469;DHT22;11401;50.792;4.352;2024-02-04T05:38:24;16.60;65.80
22469;DHT22;11401;50.792;4.352;2024-02-04T05:40:52;16.60;66.10
22469;DHT22;11401;50.792;4.352;2024-02-04T05:43:19;16.60;66.00
22469;DHT22;11401;50.792;4.352;2024-02-04T05:45:46;16.50;66.20
22469;DHT22;11401;50.792;4.352;2024-02-04T05:48:13;16.50;66.20
22469;DHT22;11401;50.792;4.352;2024-02-04T05:50:40;16.40;66.40
22469;DHT22;11401;50.792;4.352;2024-02-04T05:53:09;16.50;66.40
22469;DHT22;11401;50.792;4.352;2024-02-04T05:55:35;16.50;66.40
22469;DHT22;11401;50.792;4.352;2024-02-04T05:58:03;16.70;66.20
22469;DHT22;11401;50.792;4.352;2024-02-04T06:00:30;16.70;65.80
22469;DHT22;11401;50.792;4.352;2024-02-04T06:02:57;16.60;65.80
22469;DHT22;11401;50.792;4.352;2024-02-04T06:05:24;16.60;66.00
22469;DHT22;11401;50.792;4.352;2024-02-04T06:07:51;16.50;65.80
22469;DHT22;11401;50.792;4.352;2024-02-04T06:10:19;16.50;66.20
22469;DHT22;11401;50.792;4.352;2024-02-04T06:12:46;16.50;66.20
22469;DHT22;11401;50.792;4.352;2024-02-04T06:15:14;16.50;66.30
22469;DHT22;11401;50.792;4.352;2024-02-04T06:17:42;16.70;66.10
22469;DHT22;11401;50.792;4.352;2024-02-04T06:20:10;16.90;65.80
22469;DHT22;11401;50.792;4.352;2024-02-04T06:22:37;16.90;65.20
22469;DHT22;11401;50.792;4.352;2024-02-04T06:25:04;16.90;65.10
22469;DHT22;11401;50.792;4.352;2024-02-04T06:27:32;16.90;65.20
22469;DHT22;11401;50.792;4.352;2024-02-04T06:29:59;16.90;65.20
22469;DHT22;11401;50.792;4.352;2024-02-04T06:32:26;17.00;65.30
22469;DHT22;11401;50.792;4.352;2024-02-04T06:34:53;17.00;64.50
22469;DHT22;11401;50.792;4.352;2024-02-04T06:37:22;16.80;64.70
22469;DHT22;11401;50.792;4.352;2024-02-04T06:39:51;16.70;65.50
22469;DHT22;11401;50.792;4.352;2024-02-04T06:42:19;16.60;65.60
22469;DHT22;11401;50.792;4.352;2024-02-04T06:44:46;16.80;65.70
22469;DHT22;11401;50.792;4.352;2024-02-04T06:47:13;16.70;65.50
22469;DHT22;11401;50.792;4.352;2024-02-04T06:49:44;16.80;65.50
22469;DHT22;11401;50.792;4.352;2024-02-04T06:52:12;16.80;65.70
22469;DHT22;11401;50.792;4.352;2024-02-04T06:54:40;16.80;65.40
22469;DHT22;11401;50.792;4.352;2024-02-04T06:57:07;16.80;65.40
22469;DHT22;11401;50.792;4.352;2024-02-04T06:59:34;16.80;65.10
22469;DHT22;11401;50.792;4.352;2024-02-04T07:02:01;16.80;65.10
22469;DHT22;11401;50.792;4.352;2024-02-04T07:04:28;16.80;65.30
22469;DHT22;11401;50.792;4.352;2024-02-04T07:06:55;16.80;65.20
22469;DHT22;11401;50.792;4.352;2024-02-04T07:09:22;16.80;65.20
22469;DHT22;11401;50.792;4.352;2024-02-04T07:11:52;16.70;65.40
22469;DHT22;11401;50.792;4.352;2024-02-04T07:14:20;16.80;65.50
22469;DHT22;11401;50.792;4.352;2024-02-04T07:16:48;16.80;65.70
22469;DHT22;11401;50.792;4.352;2024-02-04T07:19:15;16.90;65.40
22469;DHT22;11401;50.792;4.352;2024-02-04T07:21:43;16.90;65.20
22469;DHT22;11401;50.792;4.352;2024-02-04T07:24:11;16.90;64.90
22469;DHT22;11401;50.792;4.352;2024-02-04T07:26:38;17.00;65.20
22469;DHT22;11401;50.792;4.352;2024-02-04T07:29:05;16.90;64.60
22469;DHT22;11401;50.792;4.352;2024-02-04T07:31:32;17.00;65.00
22469;DHT22;11401;50.792;4.352;2024-02-04T07:34:05;17.00;64.60
22469;DHT22;11401;50.792;4.352;2024-02-04T07:36:32;16.90;64.50
22469;DHT22;11401;50.792;4.352;2024-02-04T07:38:59;16.90;64.60
22469;DHT22;11401;50.792;4.352;2024-02-04T07:41:26;16.90;64.90
22469;DHT22;11401;50.792;4.352;2024-02-04T07:43:53;16.80;65.10
22469;DHT22;11401;50.792;4.352;2024-02-04T07:46:20;16.70;65.40
22469;DHT22;11401;50.792;4.352;2024-02-04T07:48:48;16.70;65.40
22469;DHT22;11401;50.792;4.352;2024-02-04T07:51:15;16.80;65.20
22469;DHT22;11401;50.792;4.352;2024-02-04T07:53:42;16.80;65.20
22469;DHT22;11401;50.792;4.352;2024-02-04T07:56:10;16.80;65.20
22469;DHT22;11401;50.792;4.352;2024-02-04T07:58:37;16.80;65.30
22469;DHT22;11401;50.792;4.352;2024-02-04T08:01:05;16.80;65.10
22469;DHT22;11401;50.792;4.352;2024-02-04T08:03:32;16.80;65.40
22469;DHT22;11401;50.792;4.352;2024-02-04T08:05:59;16.90;64.80
22469;DHT22;11401;50.792;4.352;2024-02-04T08:08:28;16.80;64.80
22469;DHT22;11401;50.792;4.352;2024-02-04T08:10:55;16.80;65.20
22469;DHT22;11401;50.792;4.352;2024-02-04T08:13:27;16.80;65.10
22469;DHT22;11401;50.792;4.352;2024-02-04T08:15:54;16.80;65.20
22469;DHT22;11401;50.792;4.352;2024-02-04T08:18:21;16.80;65.30
22469;DHT22;11401;50.792;4.352;2024-02-04T08:20:49;16.90;65.40
22469;DHT22;11401;50.792;4.352;2024-02-04T08:23:16;16.90;65.00
22469;DHT22;11401;50.792;4.352;2024-02-04T08:25:43;16.90;64.90
22469;DHT22;11401;50.792;4.352;2024-02-04T08:28:10;16.80;65.20
22469;DHT22;11401;50.792;4.352;2024-02-04T08:30:38;16.70;65.30
22469;DHT22;11401;50.792;4.352;2024-02-04T08:33:04;16.70;65.70
22469;DHT22;11401;50.792;4.352;2024-02-04T08:35:32;16.70;65.60
22469;DHT22;11401;50.792;4.352;2024-02-04T08:37:59;16.70;65.60
22469;DHT22;11401;50.792;4.352;2024-02-04T08:40:26;16.80;65.70
22469;DHT22;11401;50.792;4.352;2024-02-04T08:42:53;16.80;65.40
22469;DHT22;11401;50.792;4.352;2024-02-04T08:45:20;16.70;65.30
22469;DHT22;11401;50.792;4.352;2024-02-04T08:47:47;16.80;65.90
22469;DHT22;11401;50.792;4.352;2024-02-04T08:50:14;17.10;65.40
22469;DHT22;11401;50.792;4.352;2024-02-04T08:52:41;17.30;64.70
22469;DHT22;11401;50.792;4.352;2024-02-04T08:55:08;17.40;64.00
22469;DHT22;11401;50.792;4.352;2024-02-04T08:57:36;17.60;63.60
22469;DHT22;11401;50.792;4.352;2024-02-04T09:00:04;17.70;63.00
22469;DHT22;11401;50.792;4.352;2024-02-04T09:02:31;17.70;63.40
22469;DHT22;11401;50.792;4.352;2024-02-04T09:04:58;17.80;62.20
22469;DHT22;11401;50.792;4.352;2024-02-04T09:07:25;18.00;61.80
22469;DHT22;11401;50.792;4.352;2024-02-04T09:09:52;18.10;61.20
22469;DHT22;11401;50.792;4.352;2024-02-04T09:12:19;18.10;61.20
22469;DHT22;11401;50.792;4.352;2024-02-04T09:14:47;18.10;60.60
22469;DHT22;11401;50.792;4.352;2024-02-04T09:17:14;18.20;60.80
22469;DHT22;11401;50.792;4.352;2024-02-04T09:19:41;18.30;60.60
22469;DHT22;11401;50.792;4.352;2024-02-04T09:22:10;18.20;60.50
22469;DHT22;11401;50.792;4.352;2024-02-04T09:24:38;18.30;60.70
22469;DHT22;11401;50.792;4.352;2024-02-04T09:27:05;18.40;60.30
22469;DHT22;11401;50.792;4.352;2024-02-04T09:29:32;18.40;59.90
22469;DHT22;11401;50.792;4.352;2024-02-04T09:31:59;18.40;59.60
22469;DHT22;11401;50.792;4.352;2024-02-04T09:34:27;18.50;59.70
22469;DHT22;11401;50.792;4.352;2024-02-04T09:36:56;18.50;59.50
22469;DHT22;11401;50.792;4.352;2024-02-04T09:39:24;18.60;59.40
22469;DHT22;11401;50.792;4.352;2024-02-04T09:41:51;18.60;59.40
22469;DHT22;11401;50.792;4.352;2024-02-04T09:44:18;18.50;59.40
22469;DHT22;11401;50.792;4.352;2024-02-04T09:46:45;18.50;59.40
22469;DHT22;11401;50.792;4.352;2024-02-04T09:49:13;18.50;59.40
22469;DHT22;11401;50.792;4.352;2024-02-04T09:51:42;18.60;59.40
22469;DHT22;11401;50.792;4.352;2024-02-04T09:54:10;18.60;59.50
22469;DHT22;11401;50.792;4.352;2024-02-04T09:56:38;18.60;59.30
22469;DHT22;11401;50.792;4.352;2024-02-04T09:59:08;18.70;59.20
22469;DHT22;11401;50.792;4.352;2024-02-04T10:01:39;18.70;59.10
22469;DHT22;11401;50.792;4.352;2024-02-04T10:04:06;18.70;59.10
22469;DHT22;11401;50.792;4.352;2024-02-04T10:06:34;18.80;59.00
22469;DHT22;11401;50.792;4.352;2024-02-04T10:09:01;18.80;59.00
22469;DHT22;11401;50.792;4.352;2024-02-04T10:11:29;18.80;58.60
22469;DHT22;11401;50.792;4.352;2024-02-04T10:13:56;18.80;58.50
22469;DHT22;11401;50.792;4.352;2024-02-04T10:16:23;18.90;58.50
22469;DHT22;11401;50.792;4.352;2024-02-04T10:18:50;18.90;58.30
22469;DHT22;11401;50.792;4.352;2024-02-04T10:21:21;18.90;58.50
22469;DHT22;11401;50.792;4.352;2024-02-04T10:23:50;18.90;58.10
22469;DHT22;11401;50.792;4.352;2024-02-04T10:26:18;18.90;58.40
22469;DHT22;11401;50.792;4.352;2024-02-04T10:28:49;18.90;58.30
22469;DHT22;11401;50.792;4.352;2024-02-04T10:31:16;18.70;58.70
22469;DHT22;11401;50.792;4.352;2024-02-04T10:33:43;18.80;58.70
22469;DHT22;11401;50.792;4.352;2024-02-04T10:36:12;18.80;58.50
22469;DHT22;11401;50.792;4.352;2024-02-04T10:38:39;18.80;58.70
22469;DHT22;11401;50.792;4.352;2024-02-04T10:41:06;18.80;58.50
22469;DHT22;11401;50.792;4.352;2024-02-04T10:43:34;18.80;58.50
22469;DHT22;11401;50.792;4.352;2024-02-04T10:48:37;18.90;58.50
22469;DHT22;11401;50.792;4.352;2024-02-04T10:51:15;18.90;58.60
22469;DHT22;11401;50.792;4.352;2024-02-04T10:53:45;18.90;58.60
22469;DHT22;11401;50.792;4.352;2024-02-04T10:56:22;19.00;58.30
22469;DHT22;11401;50.792;4.352;2024-02-04T10:58:52;19.00;58.30
22469;DHT22;11401;50.792;4.352;2024-02-04T11:01:21;19.00;58.70
22469;DHT22;11401;50.792;4.352;2024-02-04T11:03:50;18.90;58.80
22469;DHT22;11401;50.792;4.352;2024-02-04T11:06:20;18.80;59.00
22469;DHT22;11401;50.792;4.352;2024-02-04T11:08:48;18.90;58.90
22469;DHT22;11401;50.792;4.352;2024-02-04T11:11:15;18.90;58.80
22469;DHT22;11401;50.792;4.352;2024-02-04T11:13:45;19.00;58.40
22469;DHT22;11401;50.792;4.352;2024-02-04T11:17:20;19.00;58.30
22469;DHT22;11401;50.792;4.352;2024-02-04T11:27:15;19.10;58.00
22469;DHT22;11401;50.792;4.352;2024-02-04T11:29:42;19.20;57.90
22469;DHT22;11401;50.792;4.352;2024-02-04T11:32:11;19.20;57.50
22469;DHT22;11401;50.792;4.352;2024-02-04T11:34:39;19.20;57.30
22469;DHT22;11401;50.792;4.352;2024-02-04T11:37:22;19.20;57.30
22469;DHT22;11401;50.792;4.352;2024-02-04T11:39:52;19.20;57.20
22469;DHT22;11401;50.792;4.352;2024-02-04T11:42:20;19.00;57.40
22469;DHT22;11401;50.792;4.352;2024-02-04T11:44:47;19.00;57.50
22469;DHT22;11401;50.792;4.352;2024-02-04T11:47:25;18.90;57.70
22469;DHT22;11401;50.792;4.352;2024-02-04T11:49:59;18.90;57.90
22469;DHT22;11401;50.792;4.352;2024-02-04T11:52:27;18.80;58.80
22469;DHT22;11401;50.792;4.352;2024-02-04T11:54:55;18.80;58.40
22469;DHT22;11401;50.792;4.352;2024-02-04T11:57:23;18.70;58.70
22469;DHT22;11401;50.792;4.352;2024-02-04T11:59:51;18.80;58.70
22469;DHT22;11401;50.792;4.352;2024-02-04T12:02:20;18.70;58.80
22469;DHT22;11401;50.792;4.352;2024-02-04T12:04:48;18.70;58.90
22469;DHT22;11401;50.792;4.352;2024-02-04T12:07:15;18.70;58.70
22469;DHT22;11401;50.792;4.352;2024-02-04T12:09:44;18.70;58.90
22469;DHT22;11401;50.792;4.352;2024-02-04T12:12:12;18.70;59.00
22469;DHT22;11401;50.792;4.352;2024-02-04T12:14:40;18.70;59.00
22469;DHT22;11401;50.792;4.352;2024-02-04T12:17:10;18.70;58.60
22469;DHT22;11401;50.792;4.352;2024-02-04T12:19:38;18.60;58.80
22469;DHT22;11401;50.792;4.352;2024-02-04T12:22:10;18.60;58.90
22469;DHT22;11401;50.792;4.352;2024-02-04T12:24:38;18.60;58.90
22469;DHT22;11401;50.792;4.352;2024-02-04T12:27:06;18.50;59.10
22469;DHT22;11401;50.792;4.352;2024-02-04T12:29:34;18.50;59.40
22469;DHT22;11401;50.792;4.352;2024-02-04T12:32:02;18.50;59.50
22469;DHT22;11401;50.792;4.352;2024-02-04T12:34:31;18.40;59.70
22469;DHT22;11401;50.792;4.352;2024-02-04T12:37:01;18.40;59.80
22469;DHT22;11401;50.792;4.352;2024-02-04T12:39:29;18.20;60.10
22469;DHT22;11401;50.792;4.352;2024-02-04T12:42:01;18.10;60.30
22469;DHT22;11401;50.792;4.352;2024-02-04T12:44:32;18.20;60.80
22469;DHT22;11401;50.792;4.352;2024-02-04T12:47:00;18.10;60.60
22469;DHT22;11401;50.792;4.352;2024-02-04T12:49:27;18.10;60.70
22469;DHT22;11401;50.792;4.352;2024-02-04T12:52:04;18.10;60.60
22469;DHT22;11401;50.792;4.352;2024-02-04T12:54:43;18.10;60.60
22469;DHT22;11401;50.792;4.352;2024-02-04T12:57:22;18.10;60.80
22469;DHT22;11401;50.792;4.352;2024-02-04T12:59:50;18.10;61.00
22469;DHT22;11401;50.792;4.352;2024-02-04T13:02:18;18.10;61.00
22469;DHT22;11401;50.792;4.352;2024-02-04T13:04:45;18.10;61.00
22469;DHT22;11401;50.792;4.352;2024-02-04T13:07:14;17.90;61.10
22469;DHT22;11401;50.792;4.352;2024-02-04T13:09:44;18.00;61.40
22469;DHT22;11401;50.792;4.352;2024-02-04T13:12:15;17.90;61.40
22469;DHT22;11401;50.792;4.352;2024-02-04T13:14:44;17.90;61.50
22469;DHT22;11401;50.792;4.352;2024-02-04T13:17:14;17.80;61.70
22469;DHT22;11401;50.792;4.352;2024-02-04T13:19:42;17.90;61.80
22469;DHT22;11401;50.792;4.352;2024-02-04T13:22:10;17.90;61.90
22469;DHT22;11401;50.792;4.352;2024-02-04T13:24:40;17.90;61.80
22469;DHT22;11401;50.792;4.352;2024-02-04T13:27:07;17.90;61.80
22469;DHT22;11401;50.792;4.352;2024-02-04T13:29:35;17.80;61.80
22469;DHT22;11401;50.792;4.352;2024-02-04T13:32:03;17.90;62.10
22469;DHT22;11401;50.792;4.352;2024-02-04T13:34:30;17.90;61.90
22469;DHT22;11401;50.792;4.352;2024-02-04T13:36:57;17.90;61.90
22469;DHT22;11401;50.792;4.352;2024-02-04T13:39:25;18.00;61.70
22469;DHT22;11401;50.792;4.352;2024-02-04T13:41:52;18.00;61.50
22469;DHT22;11401;50.792;4.352;2024-02-04T13:44:19;17.90;61.70
22469;DHT22;11401;50.792;4.352;2024-02-04T13:46:46;17.90;61.90
22469;DHT22;11401;50.792;4.352;2024-02-04T13:49:13;17.90;61.80
22469;DHT22;11401;50.792;4.352;2024-02-04T13:51:41;18.00;61.60
22469;DHT22;11401;50.792;4.352;2024-02-04T13:54:12;18.00;61.50
22469;DHT22;11401;50.792;4.352;2024-02-04T13:56:45;18.00;61.50
22469;DHT22;11401;50.792;4.352;2024-02-04T13:59:15;17.90;61.80
22469;DHT22;11401;50.792;4.352;2024-02-04T14:01:42;17.90;61.80
22469;DHT22;11401;50.792;4.352;2024-02-04T14:04:11;17.90;62.00
22469;DHT22;11401;50.792;4.352;2024-02-04T14:06:38;17.90;62.80
22469;DHT22;11401;50.792;4.352;2024-02-04T14:09:05;17.90;62.00
22469;DHT22;11401;50.792;4.352;2024-02-04T14:11:32;17.90;62.10
22469;DHT22;11401;50.792;4.352;2024-02-04T14:14:00;17.90;61.90
22469;DHT22;11401;50.792;4.352;2024-02-04T14:16:30;17.90;61.80
22469;DHT22;11401;50.792;4.352;2024-02-04T14:18:57;17.90;62.00
22469;DHT22;11401;50.792;4.352;2024-02-04T14:21:27;17.80;62.30
22469;DHT22;11401;50.792;4.352;2024-02-04T14:23:54;17.70;62.40
22469;DHT22;11401;50.792;4.352;2024-02-04T14:26:21;17.70;62.60
22469;DHT22;11401;50.792;4.352;2024-02-04T14:28:49;17.70;62.40
22469;DHT22;11401;50.792;4.352;2024-02-04T14:31:16;17.60;63.00
22469;DHT22;11401;50.792;4.352;2024-02-04T14:33:43;17.60;62.80
22469;DHT22;11401;50.792;4.352;2024-02-04T14:36:11;17.60;62.80
22469;DHT22;11401;50.792;4.352;2024-02-04T14:38:38;17.70;62.80
22469;DHT22;11401;50.792;4.352;2024-02-04T14:41:06;17.70;62.90
22469;DHT22;11401;50.792;4.352;2024-02-04T14:43:34;17.70;62.90
22469;DHT22;11401;50.792;4.352;2024-02-04T14:46:02;17.70;62.80
22469;DHT22;11401;50.792;4.352;2024-02-04T14:48:29;17.70;62.80
22469;DHT22;11401;50.792;4.352;2024-02-04T14:51:00;17.70;62.90
22469;DHT22;11401;50.792;4.352;2024-02-04T14:53:28;17.60;62.90
22469;DHT22;11401;50.792;4.352;2024-02-04T14:55:55;17.50;63.20
22469;DHT22;11401;50.792;4.352;2024-02-04T14:58:24;17.50;63.60
22469;DHT22;11401;50.792;4.352;2024-02-04T15:00:51;17.50;63.20
22469;DHT22;11401;50.792;4.352;2024-02-04T15:03:19;17.60;63.50
22469;DHT22;11401;50.792;4.352;2024-02-04T15:05:46;17.50;63.30
22469;DHT22;11401;50.792;4.352;2024-02-04T15:08:13;17.50;63.80
22469;DHT22;11401;50.792;4.352;2024-02-04T15:10:40;17.60;63.40
22469;DHT22;11401;50.792;4.352;2024-02-04T15:13:09;17.60;63.10
22469;DHT22;11401;50.792;4.352;2024-02-04T15:15:39;17.60;63.30
22469;DHT22;11401;50.792;4.352;2024-02-04T15:18:06;17.60;63.40
22469;DHT22;11401;50.792;4.352;2024-02-04T15:20:34;17.60;63.20
22469;DHT22;11401;50.792;4.352;2024-02-04T15:23:05;17.60;63.00
22469;DHT22;11401;50.792;4.352;2024-02-04T15:25:33;17.50;63.30
22469;DHT22;11401;50.792;4.352;2024-02-04T15:28:04;17.60;63.50
22469;DHT22;11401;50.792;4.352;2024-02-04T15:30:32;17.70;63.00
22469;DHT22;11401;50.792;4.352;2024-02-04T15:32:59;17.60;62.90
22469;DHT22;11401;50.792;4.352;2024-02-04T15:35:27;17.60;63.10
22469;DHT22;11401;50.792;4.352;2024-02-04T15:37:57;17.80;62.80
22469;DHT22;11401;50.792;4.352;2024-02-04T15:40:25;17.80;62.60
22469;DHT22;11401;50.792;4.352;2024-02-04T15:42:52;17.80;62.60
22469;DHT22;11401;50.792;4.352;2024-02-04T15:45:21;17.80;62.40
22469;DHT22;11401;50.792;4.352;2024-02-04T15:47:50;17.80;62.50
22469;DHT22;11401;50.792;4.352;2024-02-04T15:50:23;17.90;62.50
22469;DHT22;11401;50.792;4.352;2024-02-04T15:52:51;17.90;62.30